CMP4LG MPTO-MTPP
Flight info
| Callsign | CMP4LG |
|---|---|
| Flight time | 1h 46m |
| Altitude | 35000 |
| Route | EGETA DCT AGUJA UM597 LIDOL UG444 APLED DCT MESLI MESLI1C |
| Aircraft | B738/M-SDE2E3FGHIRWXY/LB1 |
Departure
| Time | 2026-05-05 08:49 |
|---|---|
| Airport | Tocumen International Airport (MPTO) |
Arrival
| Time | 2026-05-05 10:36 |
|---|---|
| Airport | Toussaint Louverture International Airport (MTPP) |
| Time | Latitude | Longitude | Altitude | Speed | Heading |
|---|---|---|---|---|---|
| 2026-05-05 08:36 | 9.06467 | -79.38634 | 29 ft | 0 kts | 304° |
| 2026-05-05 08:40 | 9.06455 | -79.38612 | 29 ft | 4 kts | 283° |
| 2026-05-05 08:40 | 9.06454 | -79.38586 | 29 ft | 4 kts | 252° |
| 2026-05-05 08:40 | 9.06467 | -79.38564 | 29 ft | 4 kts | 218° |
| 2026-05-05 08:41 | 9.06474 | -79.38558 | 29 ft | 0 kts | 207° |
| 2026-05-05 08:43 | 9.06460 | -79.38566 | 29 ft | 8 kts | 207° |
| 2026-05-05 08:43 | 9.06409 | -79.38593 | 29 ft | 16 kts | 207° |
| 2026-05-05 08:43 | 9.06303 | -79.38621 | 29 ft | 16 kts | 187° |
| 2026-05-05 08:43 | 9.06195 | -79.38633 | 29 ft | 15 kts | 194° |
| 2026-05-05 08:44 | 9.06102 | -79.38675 | 29 ft | 14 kts | 209° |
| 2026-05-05 08:44 | 9.06019 | -79.38724 | 29 ft | 14 kts | 210° |
| 2026-05-05 08:44 | 9.05936 | -79.38770 | 29 ft | 13 kts | 208° |
| 2026-05-05 08:44 | 9.05857 | -79.38814 | 29 ft | 13 kts | 211° |
| 2026-05-05 08:45 | 9.05782 | -79.38859 | 29 ft | 12 kts | 211° |
| 2026-05-05 08:45 | 9.05695 | -79.38910 | 29 ft | 17 kts | 210° |
| 2026-05-05 08:45 | 9.05590 | -79.38970 | 29 ft | 17 kts | 210° |
| 2026-05-05 08:45 | 9.05490 | -79.39030 | 29 ft | 16 kts | 210° |
| 2026-05-05 08:46 | 9.05393 | -79.39086 | 29 ft | 16 kts | 210° |
| 2026-05-05 08:46 | 9.05301 | -79.39139 | 29 ft | 15 kts | 209° |
| 2026-05-05 08:46 | 9.05211 | -79.39189 | 29 ft | 14 kts | 210° |
| 2026-05-05 08:46 | 9.05125 | -79.39239 | 29 ft | 14 kts | 210° |
| 2026-05-05 08:47 | 9.05043 | -79.39285 | 29 ft | 13 kts | 209° |
| 2026-05-05 08:47 | 9.04964 | -79.39330 | 29 ft | 13 kts | 209° |
| 2026-05-05 08:47 | 9.04870 | -79.39378 | 29 ft | 17 kts | 192° |
| 2026-05-05 08:47 | 9.04794 | -79.39302 | 30 ft | 16 kts | 117° |
| 2026-05-05 08:48 | 9.04843 | -79.39215 | 30 ft | 16 kts | 38° |
| 2026-05-05 08:48 | 9.04976 | -79.39139 | 31 ft | 39 kts | 29° |
| 2026-05-05 08:48 | 9.05424 | -79.38881 | 29 ft | 107 kts | 29° |
| 2026-05-05 08:48 | 9.06250 | -79.38423 | 32 ft | 162 kts | 28° |
| 2026-05-05 08:49 | 9.07308 | -79.37817 | 432 ft | 179 kts | 34° |
| 2026-05-05 08:49 | 9.08303 | -79.37069 | 1110 ft | 186 kts | 40° |
| 2026-05-05 08:49 | 9.09389 | -79.36274 | 1718 ft | 195 kts | 31° |
| 2026-05-05 08:49 | 9.10587 | -79.35477 | 1973 ft | 216 kts | 34° |
| 2026-05-05 08:50 | 9.11843 | -79.34541 | 2243 ft | 231 kts | 36° |
| 2026-05-05 08:50 | 9.13137 | -79.33548 | 2704 ft | 235 kts | 36° |
| 2026-05-05 08:50 | 9.14455 | -79.32533 | 3083 ft | 247 kts | 36° |
| 2026-05-05 08:50 | 9.15868 | -79.31447 | 3454 ft | 260 kts | 36° |
| 2026-05-05 08:51 | 9.17326 | -79.30329 | 4105 ft | 264 kts | 37° |
| 2026-05-05 08:51 | 9.18801 | -79.29199 | 4813 ft | 268 kts | 37° |
| 2026-05-05 08:51 | 9.20287 | -79.28063 | 5468 ft | 272 kts | 37° |
| 2026-05-05 08:51 | 9.21803 | -79.26904 | 6181 ft | 274 kts | 37° |
| 2026-05-05 08:52 | 9.23338 | -79.25733 | 6831 ft | 277 kts | 37° |
| 2026-05-05 08:52 | 9.24884 | -79.24553 | 7473 ft | 280 kts | 37° |
| 2026-05-05 08:52 | 9.26447 | -79.23360 | 8137 ft | 282 kts | 38° |
| 2026-05-05 08:52 | 9.28026 | -79.22156 | 8794 ft | 285 kts | 38° |
| 2026-05-05 08:53 | 9.29616 | -79.20943 | 9463 ft | 287 kts | 39° |
| 2026-05-05 08:53 | 9.31221 | -79.19719 | 10071 ft | 291 kts | 39° |
| 2026-05-05 08:53 | 9.32875 | -79.18456 | 10361 ft | 308 kts | 39° |
| 2026-05-05 08:53 | 9.34643 | -79.17105 | 10500 ft | 327 kts | 39° |
| 2026-05-05 08:54 | 9.36510 | -79.15680 | 10639 ft | 345 kts | 39° |
| 2026-05-05 08:54 | 9.38452 | -79.14198 | 10758 ft | 362 kts | 38° |
| 2026-05-05 08:54 | 9.40482 | -79.12650 | 11129 ft | 368 kts | 38° |
| 2026-05-05 08:54 | 9.42549 | -79.11075 | 11645 ft | 371 kts | 39° |
| 2026-05-05 08:55 | 9.44618 | -79.09496 | 11979 ft | 372 kts | 39° |
| 2026-05-05 08:55 | 9.46689 | -79.07915 | 11992 ft | 372 kts | 39° |
| 2026-05-05 08:55 | 9.48647 | -79.06183 | 12173 ft | 375 kts | 46° |
| 2026-05-05 08:55 | 9.50449 | -79.04267 | 12735 ft | 376 kts | 49° |
| 2026-05-05 08:56 | 9.52204 | -79.02298 | 13286 ft | 377 kts | 50° |
| 2026-05-05 08:56 | 9.53940 | -79.00329 | 13802 ft | 380 kts | 50° |
| 2026-05-05 08:56 | 9.55715 | -78.98329 | 14267 ft | 383 kts | 50° |
| 2026-05-05 08:56 | 9.57512 | -78.96323 | 14748 ft | 385 kts | 49° |
| 2026-05-05 08:57 | 9.59329 | -78.94312 | 15230 ft | 388 kts | 49° |
| 2026-05-05 08:57 | 9.61167 | -78.92289 | 15696 ft | 391 kts | 49° |
| 2026-05-05 08:57 | 9.63021 | -78.90258 | 16165 ft | 394 kts | 49° |
| 2026-05-05 08:57 | 9.64892 | -78.88213 | 16633 ft | 396 kts | 49° |
| 2026-05-05 08:58 | 9.66749 | -78.86186 | 17060 ft | 399 kts | 48° |
| 2026-05-05 08:58 | 9.68652 | -78.84109 | 17483 ft | 403 kts | 48° |
| 2026-05-05 08:58 | 9.70564 | -78.82022 | 17926 ft | 405 kts | 48° |
| 2026-05-05 08:58 | 9.72489 | -78.79921 | 18345 ft | 408 kts | 48° |
| 2026-05-05 08:59 | 9.74426 | -78.77808 | 18714 ft | 410 kts | 48° |
| 2026-05-05 08:59 | 9.76375 | -78.75679 | 19078 ft | 413 kts | 48° |
| 2026-05-05 08:59 | 9.78336 | -78.73538 | 19440 ft | 415 kts | 47° |
| 2026-05-05 08:59 | 9.80311 | -78.71381 | 19795 ft | 418 kts | 47° |
| 2026-05-05 09:00 | 9.82270 | -78.69240 | 20141 ft | 420 kts | 47° |
| 2026-05-05 09:00 | 9.84267 | -78.67058 | 20491 ft | 423 kts | 47° |
| 2026-05-05 09:00 | 9.86274 | -78.64865 | 20830 ft | 425 kts | 47° |
| 2026-05-05 09:00 | 9.88292 | -78.62660 | 21176 ft | 427 kts | 47° |
| 2026-05-05 09:01 | 9.90321 | -78.60440 | 21526 ft | 429 kts | 47° |
| 2026-05-05 09:01 | 9.92357 | -78.58214 | 21845 ft | 432 kts | 47° |
| 2026-05-05 09:01 | 9.94412 | -78.55967 | 22169 ft | 434 kts | 47° |
| 2026-05-05 09:01 | 9.96470 | -78.53715 | 22486 ft | 436 kts | 47° |
| 2026-05-05 09:02 | 9.98541 | -78.51449 | 22800 ft | 438 kts | 46° |
| 2026-05-05 09:02 | 10.00591 | -78.49205 | 23102 ft | 440 kts | 46° |
| 2026-05-05 09:02 | 10.02683 | -78.46915 | 23431 ft | 441 kts | 46° |
| 2026-05-05 09:02 | 10.04769 | -78.44631 | 23716 ft | 442 kts | 46° |
| 2026-05-05 09:03 | 10.06867 | -78.42332 | 23926 ft | 445 kts | 46° |
| 2026-05-05 09:03 | 10.08978 | -78.40020 | 24164 ft | 446 kts | 46° |
| 2026-05-05 09:03 | 10.11097 | -78.37698 | 24392 ft | 448 kts | 46° |
| 2026-05-05 09:03 | 10.13197 | -78.35397 | 24627 ft | 450 kts | 46° |
| 2026-05-05 09:04 | 10.15325 | -78.33065 | 24860 ft | 451 kts | 46° |
| 2026-05-05 09:04 | 10.17466 | -78.30717 | 25079 ft | 453 kts | 46° |
| 2026-05-05 09:04 | 10.19610 | -78.28366 | 25309 ft | 454 kts | 46° |
| 2026-05-05 09:04 | 10.21765 | -78.26002 | 25506 ft | 457 kts | 46° |
| 2026-05-05 09:05 | 10.23926 | -78.23632 | 25723 ft | 458 kts | 46° |
| 2026-05-05 09:05 | 10.26096 | -78.21250 | 25936 ft | 460 kts | 46° |
| 2026-05-05 09:05 | 10.28272 | -78.18863 | 26150 ft | 461 kts | 46° |
| 2026-05-05 09:05 | 10.30452 | -78.16469 | 26360 ft | 462 kts | 46° |
| 2026-05-05 09:06 | 10.32643 | -78.14063 | 26538 ft | 465 kts | 46° |
| 2026-05-05 09:06 | 10.34841 | -78.11649 | 26742 ft | 466 kts | 46° |
| 2026-05-05 09:06 | 10.37048 | -78.09225 | 26908 ft | 468 kts | 46° |
| 2026-05-05 09:06 | 10.39264 | -78.06790 | 27058 ft | 471 kts | 46° |
| 2026-05-05 09:07 | 10.41466 | -78.04370 | 27255 ft | 472 kts | 46° |
| 2026-05-05 09:07 | 10.43696 | -78.01919 | 27428 ft | 474 kts | 46° |
| 2026-05-05 09:07 | 10.45938 | -77.99454 | 27618 ft | 475 kts | 46° |
| 2026-05-05 09:07 | 10.48190 | -77.96977 | 27791 ft | 476 kts | 46° |
| 2026-05-05 09:08 | 10.50443 | -77.94498 | 27975 ft | 478 kts | 46° |
| 2026-05-05 09:08 | 10.52702 | -77.92013 | 28160 ft | 479 kts | 46° |
| 2026-05-05 09:08 | 10.54965 | -77.89522 | 28317 ft | 481 kts | 46° |
| 2026-05-05 09:08 | 10.57236 | -77.87022 | 28518 ft | 481 kts | 46° |
| 2026-05-05 09:09 | 10.59505 | -77.84525 | 28768 ft | 480 kts | 46° |
| 2026-05-05 09:09 | 10.61769 | -77.82031 | 29025 ft | 480 kts | 46° |
| 2026-05-05 09:09 | 10.64032 | -77.79537 | 29276 ft | 480 kts | 46° |
| 2026-05-05 09:09 | 10.66303 | -77.77036 | 29507 ft | 480 kts | 46° |
| 2026-05-05 09:10 | 10.68566 | -77.74542 | 29757 ft | 480 kts | 46° |
| 2026-05-05 09:10 | 10.70826 | -77.72050 | 30012 ft | 479 kts | 46° |
| 2026-05-05 09:10 | 10.73086 | -77.69558 | 30231 ft | 479 kts | 46° |
| 2026-05-05 09:10 | 10.75318 | -77.67096 | 30445 ft | 479 kts | 46° |
| 2026-05-05 09:11 | 10.77581 | -77.64600 | 30660 ft | 479 kts | 46° |
| 2026-05-05 09:11 | 10.79837 | -77.62111 | 30878 ft | 479 kts | 46° |
| 2026-05-05 09:11 | 10.82091 | -77.59622 | 31107 ft | 478 kts | 46° |
| 2026-05-05 09:11 | 10.84348 | -77.57131 | 31367 ft | 477 kts | 46° |
| 2026-05-05 09:12 | 10.86598 | -77.54646 | 31653 ft | 476 kts | 46° |
| 2026-05-05 09:12 | 10.88839 | -77.52171 | 31894 ft | 476 kts | 46° |
| 2026-05-05 09:12 | 10.91080 | -77.49695 | 32103 ft | 476 kts | 45° |
| 2026-05-05 09:12 | 10.93325 | -77.47213 | 32328 ft | 476 kts | 46° |
| 2026-05-05 09:13 | 10.95565 | -77.44737 | 32583 ft | 475 kts | 45° |
| 2026-05-05 09:13 | 10.97802 | -77.42264 | 32825 ft | 475 kts | 46° |
| 2026-05-05 09:13 | 11.00053 | -77.39800 | 33063 ft | 475 kts | 45° |
| 2026-05-05 09:13 | 11.02308 | -77.37393 | 33306 ft | 474 kts | 44° |
| 2026-05-05 09:14 | 11.04602 | -77.34970 | 33552 ft | 474 kts | 44° |
| 2026-05-05 09:14 | 11.06902 | -77.32548 | 33685 ft | 477 kts | 44° |
| 2026-05-05 09:14 | 11.09207 | -77.30114 | 33862 ft | 478 kts | 44° |
| 2026-05-05 09:14 | 11.11516 | -77.27670 | 34103 ft | 477 kts | 44° |
| 2026-05-05 09:15 | 11.13808 | -77.25236 | 34374 ft | 475 kts | 44° |
| 2026-05-05 09:15 | 11.16094 | -77.22805 | 34579 ft | 475 kts | 44° |
| 2026-05-05 09:15 | 11.18379 | -77.20373 | 34756 ft | 475 kts | 44° |
| 2026-05-05 09:15 | 11.20626 | -77.17981 | 34881 ft | 471 kts | 44° |
| 2026-05-05 09:16 | 11.22895 | -77.15565 | 34877 ft | 473 kts | 45° |
| 2026-05-05 09:16 | 11.27461 | -77.10702 | 34888 ft | 476 kts | 44° |
| 2026-05-05 09:17 | 11.32056 | -77.05807 | 34892 ft | 478 kts | 44° |
| 2026-05-05 09:17 | 11.36669 | -77.00889 | 34889 ft | 480 kts | 44° |
| 2026-05-05 09:18 | 11.41331 | -76.96049 | 34882 ft | 480 kts | 43° |
| 2026-05-05 09:18 | 11.46108 | -76.91291 | 34889 ft | 480 kts | 42° |
| 2026-05-05 09:19 | 11.50895 | -76.86522 | 34882 ft | 480 kts | 42° |
| 2026-05-05 09:19 | 11.55654 | -76.81746 | 34884 ft | 479 kts | 43° |
| 2026-05-05 09:20 | 11.60394 | -76.76971 | 34885 ft | 478 kts | 43° |
| 2026-05-05 09:20 | 11.65122 | -76.72203 | 34886 ft | 476 kts | 43° |
| 2026-05-05 09:21 | 11.69792 | -76.67493 | 34887 ft | 474 kts | 43° |
| 2026-05-05 09:21 | 11.74484 | -76.62760 | 34883 ft | 473 kts | 43° |
| 2026-05-05 09:22 | 11.79168 | -76.58033 | 34896 ft | 473 kts | 43° |
| 2026-05-05 09:22 | 11.83815 | -76.53339 | 34897 ft | 473 kts | 43° |
| 2026-05-05 09:23 | 11.88499 | -76.48607 | 34900 ft | 474 kts | 43° |
| 2026-05-05 09:23 | 11.93185 | -76.43869 | 34895 ft | 474 kts | 43° |
| 2026-05-05 09:24 | 11.97881 | -76.39120 | 34889 ft | 475 kts | 43° |
| 2026-05-05 09:24 | 12.02578 | -76.34366 | 34897 ft | 475 kts | 43° |
| 2026-05-05 09:25 | 12.07282 | -76.29603 | 34898 ft | 475 kts | 43° |
| 2026-05-05 09:25 | 12.11980 | -76.24844 | 34892 ft | 476 kts | 43° |
| 2026-05-05 09:26 | 12.16659 | -76.20101 | 34897 ft | 476 kts | 43° |
| 2026-05-05 09:26 | 12.21368 | -76.15324 | 34897 ft | 477 kts | 43° |
| 2026-05-05 09:27 | 12.26075 | -76.10548 | 34902 ft | 476 kts | 43° |
| 2026-05-05 09:27 | 12.30788 | -76.05766 | 34896 ft | 476 kts | 43° |
| 2026-05-05 09:28 | 12.35461 | -76.01026 | 34896 ft | 476 kts | 43° |
| 2026-05-05 09:28 | 12.40158 | -75.96258 | 34900 ft | 475 kts | 43° |
| 2026-05-05 09:29 | 12.44856 | -75.91484 | 34901 ft | 475 kts | 43° |
| 2026-05-05 09:29 | 12.49555 | -75.86708 | 34902 ft | 476 kts | 43° |
| 2026-05-05 09:30 | 12.53460 | -75.82736 | 34899 ft | 476 kts | 43° |
| 2026-05-05 09:30 | 12.58164 | -75.77950 | 34909 ft | 477 kts | 43° |
| 2026-05-05 09:31 | 12.62838 | -75.73191 | 34910 ft | 477 kts | 43° |
| 2026-05-05 09:31 | 12.67543 | -75.68397 | 34903 ft | 477 kts | 43° |
| 2026-05-05 09:32 | 12.72252 | -75.63597 | 34905 ft | 477 kts | 43° |
| 2026-05-05 09:32 | 12.76958 | -75.58797 | 34902 ft | 477 kts | 43° |
| 2026-05-05 09:33 | 12.81665 | -75.53993 | 34916 ft | 477 kts | 43° |
| 2026-05-05 09:33 | 12.86346 | -75.49213 | 34915 ft | 478 kts | 43° |
| 2026-05-05 09:34 | 12.91066 | -75.44390 | 34909 ft | 479 kts | 43° |
| 2026-05-05 09:34 | 12.95787 | -75.39565 | 34917 ft | 479 kts | 43° |
| 2026-05-05 09:35 | 13.00508 | -75.34736 | 34912 ft | 479 kts | 43° |
| 2026-05-05 09:35 | 13.07545 | -75.27529 | 34920 ft | 478 kts | 43° |
| 2026-05-05 09:36 | 13.12255 | -75.22702 | 34914 ft | 478 kts | 43° |
| 2026-05-05 09:36 | 13.16957 | -75.17880 | 34913 ft | 478 kts | 43° |
| 2026-05-05 09:37 | 13.21661 | -75.13057 | 34918 ft | 477 kts | 43° |
| 2026-05-05 09:37 | 13.26360 | -75.08240 | 34919 ft | 477 kts | 43° |
| 2026-05-05 09:38 | 13.31027 | -75.03451 | 34925 ft | 477 kts | 43° |
| 2026-05-05 09:38 | 13.35714 | -74.98638 | 34918 ft | 477 kts | 43° |
| 2026-05-05 09:39 | 13.40403 | -74.93818 | 34924 ft | 476 kts | 43° |
| 2026-05-05 09:39 | 13.45082 | -74.89007 | 34923 ft | 476 kts | 42° |
| 2026-05-05 09:40 | 13.49765 | -74.84189 | 34924 ft | 476 kts | 43° |
| 2026-05-05 09:40 | 13.54446 | -74.79371 | 34923 ft | 476 kts | 43° |
| 2026-05-05 09:41 | 13.59128 | -74.74548 | 34924 ft | 476 kts | 43° |
| 2026-05-05 09:41 | 13.63780 | -74.69753 | 34927 ft | 476 kts | 43° |
| 2026-05-05 09:42 | 13.68466 | -74.64921 | 34927 ft | 477 kts | 43° |
| 2026-05-05 09:42 | 13.73157 | -74.60080 | 34925 ft | 477 kts | 43° |
| 2026-05-05 09:43 | 13.77848 | -74.55236 | 34930 ft | 477 kts | 43° |
| 2026-05-05 09:43 | 13.82539 | -74.50390 | 34930 ft | 478 kts | 43° |
| 2026-05-05 09:44 | 13.87205 | -74.45566 | 34932 ft | 478 kts | 43° |
| 2026-05-05 09:44 | 13.91903 | -74.40705 | 34931 ft | 479 kts | 43° |
| 2026-05-05 09:45 | 13.96608 | -74.35836 | 34931 ft | 479 kts | 43° |
| 2026-05-05 09:45 | 14.01305 | -74.30970 | 34933 ft | 479 kts | 43° |
| 2026-05-05 09:46 | 14.05974 | -74.26132 | 34930 ft | 479 kts | 43° |
| 2026-05-05 09:46 | 14.10670 | -74.21260 | 34931 ft | 478 kts | 43° |
| 2026-05-05 09:47 | 14.15360 | -74.16394 | 34935 ft | 478 kts | 43° |
| 2026-05-05 09:47 | 14.20048 | -74.11538 | 34934 ft | 478 kts | 42° |
| 2026-05-05 09:48 | 14.24751 | -74.06677 | 34934 ft | 477 kts | 43° |
| 2026-05-05 09:48 | 14.29404 | -74.01863 | 34934 ft | 477 kts | 43° |
| 2026-05-05 09:49 | 14.34090 | -73.97015 | 34934 ft | 476 kts | 42° |
| 2026-05-05 09:49 | 14.38774 | -73.92182 | 34939 ft | 476 kts | 42° |
| 2026-05-05 09:50 | 14.43454 | -73.87348 | 34936 ft | 476 kts | 42° |
| 2026-05-05 09:50 | 14.48137 | -73.82506 | 34937 ft | 476 kts | 42° |
| 2026-05-05 09:51 | 14.52788 | -73.77693 | 34937 ft | 476 kts | 42° |
| 2026-05-05 09:51 | 14.57463 | -73.72852 | 34936 ft | 476 kts | 42° |
| 2026-05-05 09:52 | 14.62130 | -73.68016 | 34937 ft | 476 kts | 43° |
| 2026-05-05 09:52 | 14.66808 | -73.63165 | 34940 ft | 476 kts | 42° |
| 2026-05-05 09:53 | 14.71478 | -73.58319 | 34944 ft | 476 kts | 42° |
| 2026-05-05 09:53 | 14.76154 | -73.53464 | 34939 ft | 476 kts | 42° |
| 2026-05-05 09:54 | 14.80830 | -73.48606 | 34941 ft | 476 kts | 42° |
| 2026-05-05 09:54 | 14.85510 | -73.43740 | 34940 ft | 476 kts | 42° |
| 2026-05-05 09:55 | 14.90226 | -73.38987 | 34944 ft | 475 kts | 40° |
| 2026-05-05 09:55 | 14.95098 | -73.34351 | 34945 ft | 475 kts | 40° |
| 2026-05-05 09:56 | 14.99950 | -73.29694 | 34945 ft | 475 kts | 40° |
| 2026-05-05 09:56 | 15.04754 | -73.25043 | 34947 ft | 475 kts | 39° |
| 2026-05-05 09:57 | 15.10194 | -73.21279 | 34953 ft | 468 kts | 22° |
| 2026-05-05 09:57 | 15.16323 | -73.19208 | 34956 ft | 463 kts | 12° |
| 2026-05-05 09:58 | 15.22577 | -73.17526 | 34949 ft | 463 kts | 12° |
| 2026-05-05 09:58 | 15.28817 | -73.15804 | 34947 ft | 464 kts | 12° |
| 2026-05-05 09:59 | 15.35050 | -73.14044 | 34951 ft | 464 kts | 12° |
| 2026-05-05 09:59 | 15.41249 | -73.12285 | 34950 ft | 465 kts | 12° |
| 2026-05-05 10:00 | 15.47486 | -73.10516 | 34954 ft | 465 kts | 12° |
| 2026-05-05 10:00 | 15.53731 | -73.08746 | 34953 ft | 465 kts | 12° |
| 2026-05-05 10:01 | 15.59995 | -73.06974 | 34950 ft | 466 kts | 12° |
| 2026-05-05 10:01 | 15.66221 | -73.05217 | 34952 ft | 466 kts | 12° |
| 2026-05-05 10:02 | 15.72486 | -73.03448 | 34953 ft | 466 kts | 12° |
| 2026-05-05 10:02 | 15.78757 | -73.01674 | 34954 ft | 467 kts | 12° |
| 2026-05-05 10:03 | 15.85028 | -72.99899 | 34956 ft | 467 kts | 12° |
| 2026-05-05 10:03 | 15.91297 | -72.98124 | 34956 ft | 467 kts | 12° |
| 2026-05-05 10:04 | 15.97527 | -72.96358 | 34958 ft | 467 kts | 12° |
| 2026-05-05 10:04 | 16.03807 | -72.94577 | 34963 ft | 467 kts | 12° |
| 2026-05-05 10:05 | 16.10083 | -72.92796 | 34962 ft | 467 kts | 12° |
| 2026-05-05 10:05 | 16.16348 | -72.91017 | 34961 ft | 467 kts | 12° |
| 2026-05-05 10:06 | 16.22627 | -72.89233 | 34967 ft | 467 kts | 12° |
| 2026-05-05 10:06 | 16.28846 | -72.87461 | 34966 ft | 467 kts | 12° |
| 2026-05-05 10:07 | 16.35108 | -72.85667 | 34974 ft | 467 kts | 12° |
| 2026-05-05 10:07 | 16.41379 | -72.83868 | 34970 ft | 467 kts | 12° |
| 2026-05-05 10:08 | 16.47650 | -72.82068 | 34970 ft | 467 kts | 12° |
| 2026-05-05 10:08 | 16.53928 | -72.80266 | 34971 ft | 467 kts | 12° |
| 2026-05-05 10:09 | 16.60165 | -72.78475 | 34973 ft | 468 kts | 12° |
| 2026-05-05 10:09 | 16.66452 | -72.76667 | 34981 ft | 468 kts | 11° |
| 2026-05-05 10:10 | 16.72749 | -72.74856 | 34975 ft | 469 kts | 11° |
| 2026-05-05 10:10 | 16.79024 | -72.73049 | 34976 ft | 470 kts | 11° |
| 2026-05-05 10:11 | 16.85348 | -72.71228 | 34976 ft | 470 kts | 11° |
| 2026-05-05 10:11 | 16.88516 | -72.70315 | 34678 ft | 476 kts | 11° |
| 2026-05-05 10:11 | 16.91724 | -72.69391 | 34115 ft | 477 kts | 11° |
| 2026-05-05 10:12 | 16.94922 | -72.68467 | 33428 ft | 477 kts | 12° |
| 2026-05-05 10:12 | 16.98120 | -72.67544 | 32739 ft | 478 kts | 12° |
| 2026-05-05 10:12 | 17.01338 | -72.66685 | 32000 ft | 477 kts | 8° |
| 2026-05-05 10:12 | 17.04574 | -72.66075 | 31276 ft | 478 kts | 5° |
| 2026-05-05 10:13 | 17.07854 | -72.65565 | 30711 ft | 475 kts | 5° |
| 2026-05-05 10:13 | 17.11115 | -72.65093 | 30223 ft | 471 kts | 5° |
| 2026-05-05 10:13 | 17.14369 | -72.64619 | 29626 ft | 469 kts | 5° |
| 2026-05-05 10:13 | 17.17587 | -72.64134 | 29083 ft | 464 kts | 5° |
| 2026-05-05 10:14 | 17.20763 | -72.63640 | 28549 ft | 460 kts | 6° |
| 2026-05-05 10:14 | 17.23912 | -72.63138 | 28036 ft | 455 kts | 6° |
| 2026-05-05 10:14 | 17.27033 | -72.62634 | 27537 ft | 451 kts | 6° |
| 2026-05-05 10:14 | 17.30118 | -72.62134 | 27040 ft | 447 kts | 6° |
| 2026-05-05 10:15 | 17.33174 | -72.61637 | 26546 ft | 443 kts | 6° |
| 2026-05-05 10:15 | 17.36171 | -72.61150 | 26065 ft | 439 kts | 6° |
| 2026-05-05 10:15 | 17.39186 | -72.60660 | 25586 ft | 436 kts | 6° |
| 2026-05-05 10:15 | 17.42170 | -72.60176 | 25087 ft | 433 kts | 6° |
| 2026-05-05 10:16 | 17.45146 | -72.59693 | 24596 ft | 430 kts | 6° |
| 2026-05-05 10:16 | 17.48094 | -72.59215 | 24104 ft | 428 kts | 6° |
| 2026-05-05 10:16 | 17.51034 | -72.58738 | 23621 ft | 426 kts | 6° |
| 2026-05-05 10:16 | 17.53959 | -72.58263 | 23059 ft | 423 kts | 7° |
| 2026-05-05 10:17 | 17.56858 | -72.57792 | 22549 ft | 419 kts | 6° |
| 2026-05-05 10:17 | 17.59692 | -72.57332 | 22061 ft | 415 kts | 7° |
| 2026-05-05 10:17 | 17.62540 | -72.56869 | 21581 ft | 412 kts | 6° |
| 2026-05-05 10:17 | 17.65364 | -72.56410 | 21115 ft | 408 kts | 7° |
| 2026-05-05 10:18 | 17.68165 | -72.55954 | 20652 ft | 405 kts | 6° |
| 2026-05-05 10:18 | 17.70943 | -72.55502 | 20184 ft | 403 kts | 7° |
| 2026-05-05 10:18 | 17.73709 | -72.55052 | 19707 ft | 401 kts | 6° |
| 2026-05-05 10:18 | 17.75538 | -72.54755 | 19397 ft | 400 kts | 7° |
| 2026-05-05 10:19 | 17.78285 | -72.54308 | 18925 ft | 399 kts | 7° |
| 2026-05-05 10:19 | 17.81024 | -72.53862 | 18459 ft | 398 kts | 7° |
| 2026-05-05 10:19 | 17.83761 | -72.53416 | 17950 ft | 397 kts | 7° |
| 2026-05-05 10:19 | 17.86483 | -72.52972 | 17468 ft | 394 kts | 8° |
| 2026-05-05 10:20 | 17.88267 | -72.52656 | 17163 ft | 393 kts | 11° |
| 2026-05-05 10:21 | 18.05251 | -72.41750 | 13600 ft | 383 kts | 34° |
| 2026-05-05 10:22 | 18.07442 | -72.40171 | 13144 ft | 380 kts | 35° |
| 2026-05-05 10:22 | 18.09622 | -72.38618 | 12696 ft | 377 kts | 32° |
| 2026-05-05 10:22 | 18.12039 | -72.37609 | 12230 ft | 376 kts | 9° |
| 2026-05-05 10:22 | 18.14624 | -72.37613 | 11800 ft | 367 kts | 349° |
| 2026-05-05 10:23 | 18.17005 | -72.38422 | 11385 ft | 355 kts | 332° |
| 2026-05-05 10:23 | 18.19057 | -72.39804 | 10989 ft | 345 kts | 324° |
| 2026-05-05 10:23 | 18.20983 | -72.41257 | 10816 ft | 336 kts | 323° |
| 2026-05-05 10:23 | 18.22851 | -72.42690 | 10653 ft | 329 kts | 323° |
| 2026-05-05 10:24 | 18.24681 | -72.44089 | 10514 ft | 321 kts | 323° |
| 2026-05-05 10:24 | 18.26470 | -72.45448 | 10374 ft | 314 kts | 324° |
| 2026-05-05 10:24 | 18.28222 | -72.46771 | 10237 ft | 307 kts | 324° |
| 2026-05-05 10:24 | 18.29917 | -72.48045 | 10116 ft | 300 kts | 324° |
| 2026-05-05 10:25 | 18.31596 | -72.49304 | 9927 ft | 295 kts | 324° |
| 2026-05-05 10:25 | 18.33264 | -72.50554 | 9645 ft | 294 kts | 324° |
| 2026-05-05 10:25 | 18.34928 | -72.51800 | 9352 ft | 293 kts | 324° |
| 2026-05-05 10:25 | 18.36590 | -72.53045 | 9060 ft | 293 kts | 324° |
| 2026-05-05 10:26 | 18.38249 | -72.54287 | 8776 ft | 292 kts | 324° |
| 2026-05-05 10:26 | 18.39902 | -72.55525 | 8487 ft | 291 kts | 324° |
| 2026-05-05 10:26 | 18.41552 | -72.56760 | 8193 ft | 291 kts | 324° |
| 2026-05-05 10:26 | 18.43198 | -72.57993 | 7900 ft | 290 kts | 324° |
| 2026-05-05 10:27 | 18.44833 | -72.59218 | 7622 ft | 288 kts | 325° |
| 2026-05-05 10:27 | 18.46457 | -72.60435 | 7351 ft | 286 kts | 325° |
| 2026-05-05 10:27 | 18.48090 | -72.61657 | 7039 ft | 287 kts | 325° |
| 2026-05-05 10:27 | 18.49716 | -72.62873 | 6773 ft | 287 kts | 326° |
| 2026-05-05 10:28 | 18.51343 | -72.64092 | 6509 ft | 286 kts | 326° |
| 2026-05-05 10:28 | 18.52961 | -72.65303 | 6224 ft | 285 kts | 326° |
| 2026-05-05 10:28 | 18.54615 | -72.66447 | 5933 ft | 283 kts | 337° |
| 2026-05-05 10:28 | 18.56504 | -72.66828 | 5667 ft | 276 kts | 7° |
| 2026-05-05 10:29 | 18.58300 | -72.66260 | 5448 ft | 267 kts | 34° |
| 2026-05-05 10:29 | 18.59672 | -72.65034 | 5383 ft | 253 kts | 53° |
| 2026-05-05 10:29 | 18.60514 | -72.63463 | 5276 ft | 242 kts | 69° |
| 2026-05-05 10:29 | 18.61078 | -72.61849 | 5161 ft | 233 kts | 82° |
| 2026-05-05 10:30 | 18.60924 | -72.60209 | 5078 ft | 221 kts | 108° |
| 2026-05-05 10:30 | 18.60318 | -72.58725 | 4918 ft | 222 kts | 117° |
| 2026-05-05 10:30 | 18.59596 | -72.57280 | 4708 ft | 224 kts | 118° |
| 2026-05-05 10:30 | 18.58867 | -72.55819 | 4450 ft | 226 kts | 117° |
| 2026-05-05 10:31 | 18.58141 | -72.54348 | 4210 ft | 226 kts | 117° |
| 2026-05-05 10:31 | 18.57420 | -72.52872 | 3963 ft | 226 kts | 117° |
| 2026-05-05 10:31 | 18.56799 | -72.51354 | 3724 ft | 225 kts | 99° |
| 2026-05-05 10:31 | 18.56944 | -72.49741 | 3541 ft | 222 kts | 77° |
| 2026-05-05 10:32 | 18.57104 | -72.48124 | 3265 ft | 222 kts | 91° |
| 2026-05-05 10:32 | 18.57119 | -72.46487 | 2978 ft | 224 kts | 86° |
| 2026-05-05 10:32 | 18.57221 | -72.44842 | 2692 ft | 225 kts | 86° |
| 2026-05-05 10:32 | 18.57312 | -72.43201 | 2377 ft | 223 kts | 87° |
| 2026-05-05 10:33 | 18.57391 | -72.41609 | 2071 ft | 212 kts | 87° |
| 2026-05-05 10:33 | 18.57465 | -72.40097 | 1783 ft | 201 kts | 87° |
| 2026-05-05 10:33 | 18.57535 | -72.38668 | 1526 ft | 189 kts | 87° |
| 2026-05-05 10:33 | 18.57602 | -72.37323 | 1272 ft | 178 kts | 87° |
| 2026-05-05 10:34 | 18.57665 | -72.36055 | 1043 ft | 168 kts | 87° |
| 2026-05-05 10:34 | 18.57723 | -72.34883 | 883 ft | 153 kts | 88° |
| 2026-05-05 10:34 | 18.57778 | -72.33813 | 682 ft | 141 kts | 88° |
| 2026-05-05 10:34 | 18.57829 | -72.32797 | 510 ft | 136 kts | 89° |
| 2026-05-05 10:35 | 18.57879 | -72.31802 | 323 ft | 135 kts | 90° |
| 2026-05-05 10:35 | 18.57924 | -72.30823 | 150 ft | 132 kts | 90° |
| 2026-05-05 10:35 | 18.57966 | -72.29909 | 103 ft | 112 kts | 87° |
| 2026-05-05 10:35 | 18.58005 | -72.29217 | 105 ft | 77 kts | 86° |
| 2026-05-05 10:36 | 18.58028 | -72.28776 | 115 ft | 43 kts | 88° |
| 2026-05-05 10:36 | 18.58037 | -72.28585 | 120 ft | 12 kts | 88° |
| 2026-05-05 10:36 | 18.58040 | -72.28494 | 123 ft | 14 kts | 76° |
| 2026-05-05 10:36 | 18.58069 | -72.28399 | 124 ft | 14 kts | 115° |
| 2026-05-05 10:37 | 18.58036 | -72.28427 | 123 ft | 9 kts | 273° |
| 2026-05-05 10:37 | 18.58039 | -72.28524 | 122 ft | 21 kts | 270° |
| 2026-05-05 10:37 | 18.58034 | -72.28719 | 112 ft | 30 kts | 268° |
| 2026-05-05 10:37 | 18.58024 | -72.28929 | 114 ft | 28 kts | 267° |
| 2026-05-05 10:38 | 18.58014 | -72.29128 | 107 ft | 26 kts | 267° |
| 2026-05-05 10:38 | 18.58004 | -72.29314 | 103 ft | 25 kts | 266° |
| 2026-05-05 10:38 | 18.57966 | -72.29457 | 104 ft | 19 kts | 211° |
| 2026-05-05 10:38 | 18.57840 | -72.29466 | 101 ft | 18 kts | 176° |
| 2026-05-05 10:39 | 18.57721 | -72.29459 | 100 ft | 15 kts | 181° |
| 2026-05-05 10:39 | 18.57688 | -72.29479 | 100 ft | 4 kts | 217° |
| 2026-05-05 10:39 | 18.57664 | -72.29494 | 100 ft | 5 kts | 200° |
| 2026-05-05 10:39 | 18.57630 | -72.29504 | 101 ft | 2 kts | 194° |